Aklavik, Northwest Territories

4:38 AM MDT on April 01, 2015 (GMT -0600)
Zubko | | Change Station
CLOSE
Current Station
Airport
Location: Inuvik,
Elevation: 223 ft
Nearby Weather Stations

Elev 223 ft 68.31 °N, 133.50 °W | Updated 38 minutes ago

Partly Cloudy
Partly Cloudy
-4 °F
Feels Like -20 °F
N
9
Wind Variable Wind from ENE

Today is forecast to be nearly the same temperature as yesterday.

Today
High -- | Low -- °F
--% Chance of Precip.
Yesterday
High -- | Low -- °F
Precip. -- in
8:08 AM 10:01 PM
Waxing Gibbous, 92% visible
Pressure 30.18 in
Visibility 15.0 miles
Clouds Few 10000 ft
Windchill -20 °F
Dew Point -15 °F
Humidity 60%
Rainfall 0.00 in
Snow Depth Not available.
UV 0 out of 12
Pollen Not available.
Air Quality Not available.
Flu Activity Not available.
METAR CYEV 011000Z 07008KT 15SM FEW100 M20/M26 A3015 RMK AC2 SLP220

More Conditions Fewer Conditions

Pressure 30.18 in
Visibility 15.0 miles
Clouds Few 10000 ft
Windchill -20 °F
Dew Point -15 °F
Humidity 60%
Rainfall 0.00 in
Snow Depth Not available.
UV 0 out of 12
Pollen Not available.
Air Quality Not available.
Flu Activity Not available.
METAR CYEV 011000Z 07008KT 15SM FEW100 M20/M26 A3015 RMK AC2 SLP220

More Conditions Fewer Conditions

10-Day Weather Forecast

Almanac

Astronomy

Apr. 01, 2015 Rise Set
Actual Time
Civil Twilight
Nautical Twilight
Astronomical Twilight
Moon
Length of Visible Light
Length of Day
Tomorrow will be .
, % of the Moon is Illuminated

Today's Extremes

Country Highs Country Lows

Community

WunderPhotos

Upload Photos

1,809,934 photos uploaded!

WunderBlogs® & News

Nearby

Air Quality

  Air Quality AQ Index Pollutant
Not available.

Snow Depth

Station Depth Elevation

Earthquake Activity

City Distance Mag. Time & Date
Minimum magnitude displayed is 2.5.

Coastal Water Temperatures

Place Temperature

Stations

Nearby Weather Stations

Station Location Temp. Windchill Dew Point Humidity Wind Precip. Elev Updated Type